createdAt,value
2018-08-03T00:02:11.509Z,92.51
2018-08-03T00:04:40.527Z,92.40
2018-08-03T00:07:09.818Z,93.30
2018-08-03T00:09:38.623Z,92.61
2018-08-03T00:12:08.194Z,92.08
2018-08-03T00:14:37.246Z,92.59
2018-08-03T00:17:06.328Z,92.42
2018-08-03T00:19:35.454Z,92.52
2018-08-03T00:22:04.818Z,92.84
2018-08-03T00:24:33.723Z,92.61
2018-08-03T00:27:02.503Z,91.98
2018-08-03T00:29:31.417Z,91.70
2018-08-03T00:32:00.340Z,91.98
2018-08-03T00:34:29.385Z,91.93
2018-08-03T00:36:58.781Z,91.95
2018-08-03T00:39:27.858Z,92.18
2018-08-03T00:41:56.957Z,91.88
2018-08-03T00:44:26.088Z,91.53
2018-08-03T00:46:55.196Z,91.53
2018-08-03T00:49:24.116Z,91.83
2018-08-03T00:51:53.113Z,92.15
2018-08-03T00:54:22.977Z,92.85
2018-08-03T00:56:51.775Z,93.52
2018-08-03T00:59:21.710Z,93.95
2018-08-03T01:01:50.672Z,94.54
2018-08-03T01:04:19.668Z,94.32
2018-08-03T01:06:48.803Z,94.21
2018-08-03T01:09:17.852Z,94.77
2018-08-03T01:11:47.564Z,95.47
2018-08-03T01:14:16.354Z,95.19
2018-08-03T01:16:45.272Z,95.29
2018-08-03T01:19:15.282Z,96.17
2018-08-03T01:21:45.427Z,95.52
2018-08-03T01:24:14.511Z,94.90
2018-08-03T01:26:43.627Z,95.03
2018-08-03T01:29:13.311Z,96.30
2018-08-03T01:31:42.291Z,96.22
2018-08-03T01:34:11.267Z,95.60
2018-08-03T01:36:40.047Z,95.27
2018-08-03T01:39:09.814Z,95.77
2018-08-03T01:41:38.901Z,95.62
2018-08-03T01:44:09.639Z,96.80
2018-08-03T01:46:38.392Z,96.68
2018-08-03T01:49:07.591Z,96.65
2018-08-03T01:51:37.141Z,96.53
2018-08-03T01:54:06.202Z,95.69
2018-08-03T01:56:35.009Z,95.92
2018-08-03T01:59:04.577Z,95.23
2018-08-03T02:01:33.818Z,95.66
2018-08-03T02:04:02.798Z,95.43
2018-08-03T02:06:32.045Z,95.33
2018-08-03T02:09:00.913Z,95.04
2018-08-03T02:11:30.212Z,95.44
2018-08-03T02:13:59.755Z,96.18
2018-08-03T02:16:28.810Z,95.83
2018-08-03T02:18:57.599Z,95.79
2018-08-03T02:21:26.794Z,95.59
2018-08-03T02:23:55.587Z,95.90
2018-08-03T02:26:24.471Z,95.85
2018-08-03T02:28:54.004Z,96.41
2018-08-03T02:31:22.980Z,96.14
2018-08-03T02:33:51.974Z,97.34
2018-08-03T02:36:22.375Z,97.36
2018-08-03T02:38:52.315Z,97.87
2018-08-03T02:41:21.050Z,97.67
2018-08-03T02:43:50.755Z,97.92
2018-08-03T02:46:19.759Z,98.01
2018-08-03T02:48:49.526Z,97.76
2018-08-03T02:51:18.943Z,97.60
2018-08-03T02:53:48.643Z,97.51
2018-08-03T02:56:17.634Z,96.59
2018-08-03T02:58:47.796Z,95.91
2018-08-03T03:01:17.362Z,96.33
2018-08-03T03:03:46.043Z,96.72
2018-08-03T03:06:15.383Z,96.45
2018-08-03T03:08:44.356Z,96.54
2018-08-03T03:11:13.727Z,96.58
2018-08-03T03:13:42.990Z,96.96
2018-08-03T03:16:12.544Z,96.98
2018-08-03T03:18:42.026Z,96.89
2018-08-03T03:21:11.269Z,96.59
2018-08-03T03:23:40.119Z,97.64
2018-08-03T03:26:08.842Z,97.79
2018-08-03T03:28:38.057Z,98.27
2018-08-03T03:31:06.739Z,97.84
2018-08-03T03:33:35.861Z,98.01
2018-08-03T03:36:05.418Z,98.24
2018-08-03T03:38:34.298Z,98.49
2018-08-03T03:41:03.408Z,97.67
2018-08-03T03:43:32.504Z,96.54
2018-08-03T03:46:01.517Z,93.25
2018-08-03T03:48:30.303Z,92.68
2018-08-03T03:50:59.440Z,91.85
2018-08-03T03:53:28.400Z,90.27
2018-08-03T03:55:57.374Z,91.03
2018-08-03T03:58:26.233Z,91.48
2018-08-03T04:00:55.392Z,90.55
2018-08-03T04:03:25.090Z,88.73
2018-08-03T04:05:54.631Z,88.77
2018-08-03T04:08:23.874Z,88.33
2018-08-03T04:10:52.940Z,83.96
2018-08-03T04:13:21.910Z,79.80
2018-08-03T04:15:50.899Z,74.09
2018-08-03T04:18:22.055Z,69.04
2018-08-03T04:20:52.372Z,65.17
2018-08-03T04:23:21.230Z,63.28
2018-08-03T04:25:50.152Z,60.10
2018-08-03T04:28:19.244Z,58.13
2018-08-03T04:30:48.211Z,56.11
2018-08-03T04:33:18.139Z,54.14
2018-08-03T04:35:47.814Z,52.39
2018-08-03T04:38:16.972Z,51.17
2018-08-03T04:40:46.051Z,51.69
2018-08-03T04:43:15.144Z,51.51
2018-08-03T04:45:44.654Z,49.27
2018-08-03T04:48:13.658Z,47.81
2018-08-03T04:50:42.545Z,46.83
2018-08-03T04:53:11.642Z,45.59
2018-08-03T04:55:40.711Z,45.00
2018-08-03T04:58:09.678Z,46.20
2018-08-03T05:00:38.823Z,46.19
2018-08-03T05:03:07.910Z,46.03
2018-08-03T05:05:36.806Z,45.69
2018-08-03T05:08:05.710Z,45.96
2018-08-03T05:10:34.631Z,44.29
2018-08-03T05:13:03.925Z,43.75
2018-08-03T05:15:33.726Z,43.25
2018-08-03T05:18:02.738Z,44.10
2018-08-03T05:20:31.812Z,43.94
2018-08-03T05:23:01.173Z,48.21
2018-08-03T05:25:30.358Z,49.35
2018-08-03T05:27:59.901Z,50.53
2018-08-03T05:30:28.804Z,50.99
2018-08-03T05:32:57.639Z,46.57
2018-08-03T05:35:26.569Z,45.42
2018-08-03T05:37:55.812Z,44.59
2018-08-03T05:40:27.057Z,49.19
2018-08-03T05:42:56.062Z,48.54
2018-08-03T05:45:25.108Z,50.45
2018-08-03T05:47:54.078Z,49.39
2018-08-03T05:50:23.267Z,49.13
2018-08-03T05:52:52.182Z,49.11
2018-08-03T05:55:21.654Z,48.75
2018-08-03T05:57:53.614Z,53.22
2018-08-03T06:00:22.940Z,54.39
2018-08-03T06:02:52.354Z,57.83
2018-08-03T06:05:22.286Z,57.79
2018-08-03T06:07:51.416Z,59.22
2018-08-03T06:10:20.542Z,58.07
2018-08-03T06:12:50.009Z,59.55
2018-08-03T06:15:19.721Z,60.03
2018-08-03T06:17:51.026Z,59.80
2018-08-03T06:20:20.151Z,58.88
2018-08-03T06:22:49.936Z,57.92
2018-08-03T06:25:18.717Z,58.35
2018-08-03T06:27:47.784Z,58.83
2018-08-03T06:30:16.889Z,57.65
2018-08-03T06:32:45.816Z,54.88
2018-08-03T06:35:15.071Z,55.67
2018-08-03T06:37:44.206Z,55.11
2018-08-03T06:40:13.175Z,56.34
2018-08-03T06:42:42.204Z,55.80
2018-08-03T06:45:11.232Z,55.99
2018-08-03T06:47:40.309Z,55.35
2018-08-03T06:50:09.205Z,52.63
2018-08-03T06:52:38.333Z,52.11
2018-08-03T06:55:07.568Z,48.76
2018-08-03T06:57:37.169Z,46.55
2018-08-03T07:00:07.285Z,43.12
2018-08-03T07:02:36.200Z,40.96
2018-08-03T07:05:05.303Z,39.62
2018-08-03T07:07:34.243Z,40.48
2018-08-03T07:10:03.199Z,40.76
2018-08-03T07:12:32.288Z,41.77
2018-08-03T07:15:01.602Z,41.89
2018-08-03T07:17:30.986Z,39.97
2018-08-03T07:20:00.766Z,40.02
2018-08-03T07:22:29.647Z,44.03
2018-08-03T07:24:59.412Z,48.69
2018-08-03T07:27:28.794Z,49.68
2018-08-03T07:29:58.530Z,48.97
2018-08-03T07:32:28.121Z,48.50
2018-08-03T07:34:57.662Z,51.05
2018-08-03T07:37:31.215Z,50.74
2018-08-03T07:40:02.030Z,51.15
2018-08-03T07:42:33.035Z,51.88
2018-08-03T07:45:02.729Z,52.84
2018-08-03T07:47:32.439Z,50.69
2018-08-03T07:50:01.547Z,54.42
2018-08-03T07:52:30.759Z,54.65
2018-08-03T07:54:59.522Z,54.22
2018-08-03T07:57:28.784Z,53.65
2018-08-03T07:59:57.648Z,53.91
2018-08-03T08:02:26.722Z,55.69
2018-08-03T08:04:55.634Z,54.64
2018-08-03T08:07:24.401Z,55.50
2018-08-03T08:09:53.083Z,55.23
2018-08-03T08:12:22.635Z,56.10
2018-08-03T08:14:51.480Z,57.37
2018-08-03T08:17:20.265Z,57.87
2018-08-03T08:19:49.362Z,60.67
2018-08-03T08:22:18.687Z,59.40
2018-08-03T08:24:47.466Z,59.45
2018-08-03T08:27:16.788Z,62.19
2018-08-03T08:29:45.675Z,61.03
2018-08-03T08:32:14.935Z,62.95
2018-08-03T08:34:43.878Z,61.25
2018-08-03T08:37:12.751Z,61.33
2018-08-03T08:39:42.247Z,60.82
2018-08-03T08:42:11.591Z,58.66
2018-08-03T08:44:40.432Z,56.32
2018-08-03T08:47:09.475Z,56.90
2018-08-03T08:49:38.630Z,56.17
2018-08-03T08:52:07.835Z,54.46
2018-08-03T08:54:36.640Z,54.53
2018-08-03T08:57:05.931Z,50.22
2018-08-03T08:59:35.331Z,51.36
2018-08-03T09:02:04.334Z,50.30
2018-08-03T09:04:33.873Z,51.02
2018-08-03T09:07:03.043Z,46.40
2018-08-03T09:09:31.726Z,45.70
2018-08-03T09:12:00.524Z,46.79
2018-08-03T09:14:29.442Z,49.13
2018-08-03T09:16:58.710Z,48.77
2018-08-03T09:19:27.508Z,51.95
2018-08-03T09:21:56.418Z,50.58
2018-08-03T09:24:25.456Z,48.75
2018-08-03T09:26:54.491Z,47.13
2018-08-03T09:29:23.534Z,48.26
2018-08-03T09:31:52.790Z,49.85
2018-08-03T09:34:21.991Z,48.20
2018-08-03T09:36:51.485Z,49.43
2018-08-03T09:39:21.106Z,48.43
2018-08-03T09:41:49.750Z,49.38
2018-08-03T09:44:19.031Z,45.36
2018-08-03T09:46:48.074Z,44.66
2018-08-03T09:49:16.891Z,44.20
2018-08-03T09:51:46.089Z,44.04
2018-08-03T09:54:15.277Z,41.86
2018-08-03T09:56:44.283Z,42.55
2018-08-03T09:59:13.431Z,41.87
2018-08-03T10:01:42.305Z,42.21
2018-08-03T10:04:11.186Z,42.15
2018-08-03T10:06:40.478Z,42.85
2018-08-03T10:09:09.860Z,41.84
2018-08-03T10:11:38.795Z,42.61
2018-08-03T10:14:08.568Z,42.17
2018-08-03T10:16:38.178Z,42.70
2018-08-03T10:19:07.167Z,42.46
2018-08-03T10:21:36.118Z,42.75
2018-08-03T10:24:05.359Z,43.27
2018-08-03T10:26:34.351Z,40.03
2018-08-03T10:29:03.149Z,39.34
2018-08-03T10:31:32.346Z,38.10
2018-08-03T10:34:01.752Z,40.58
2018-08-03T10:36:30.844Z,39.90
2018-08-03T10:38:59.939Z,42.05
2018-08-03T10:41:29.374Z,39.83
2018-08-03T10:43:58.471Z,38.96
2018-08-03T10:46:27.756Z,40.99
2018-08-03T10:48:56.945Z,41.43
2018-08-03T10:51:26.121Z,40.51
2018-08-03T10:53:55.208Z,39.46
2018-08-03T10:56:24.702Z,38.85
2018-08-03T10:58:53.750Z,38.64
2018-08-03T11:01:23.007Z,40.26
2018-08-03T11:03:52.202Z,38.69
2018-08-03T11:06:21.335Z,39.87
2018-08-03T11:08:50.123Z,40.18
2018-08-03T11:11:19.522Z,41.37
2018-08-03T11:13:48.548Z,41.25
2018-08-03T11:16:17.423Z,41.72
2018-08-03T11:18:46.209Z,41.95
2018-08-03T11:21:15.610Z,40.76
2018-08-03T11:23:44.744Z,41.38
2018-08-03T11:26:13.750Z,39.55
2018-08-03T11:28:42.681Z,41.14
2018-08-03T11:31:11.697Z,42.82
2018-08-03T11:33:40.938Z,39.83
2018-08-03T11:36:10.155Z,40.90
2018-08-03T11:38:39.217Z,41.11
2018-08-03T11:41:08.106Z,43.20
2018-08-03T11:43:37.486Z,42.00
2018-08-03T11:46:06.566Z,42.07
2018-08-03T11:48:35.922Z,42.59
2018-08-03T11:51:04.913Z,40.56
2018-08-03T11:53:34.290Z,42.07
2018-08-03T11:56:03.515Z,42.25
2018-08-03T11:58:32.667Z,41.43
2018-08-03T12:01:02.317Z,42.08
2018-08-03T12:03:31.381Z,42.70
2018-08-03T12:06:00.490Z,43.80
2018-08-03T12:08:29.464Z,42.48
2018-08-03T12:10:58.914Z,42.98
2018-08-03T12:13:27.988Z,43.03
2018-08-03T12:15:56.790Z,43.43
2018-08-03T12:18:25.915Z,42.41
2018-08-03T12:20:55.168Z,43.49
2018-08-03T12:23:24.295Z,41.45
2018-08-03T12:25:53.171Z,42.18
2018-08-03T12:28:21.972Z,42.97
2018-08-03T12:30:51.109Z,42.97
2018-08-03T12:33:20.174Z,45.05
2018-08-03T12:35:49.416Z,44.11
2018-08-03T12:38:18.330Z,42.86
2018-08-03T12:40:47.318Z,41.32
2018-08-03T12:43:16.473Z,43.04
2018-08-03T12:45:45.723Z,43.17
2018-08-03T12:48:14.698Z,41.96
2018-08-03T12:50:44.478Z,43.71
2018-08-03T12:53:13.081Z,43.50
2018-08-03T12:55:42.299Z,43.69
2018-08-03T12:58:11.444Z,42.32
2018-08-03T13:00:40.483Z,43.06
2018-08-03T13:03:09.456Z,41.79
2018-08-03T13:05:38.726Z,43.61
2018-08-03T13:08:08.032Z,44.39
2018-08-03T13:10:37.442Z,45.09
2018-08-03T13:13:06.221Z,44.76
2018-08-03T13:15:35.870Z,43.49
2018-08-03T13:18:04.642Z,42.66
2018-08-03T13:20:34.714Z,44.20
2018-08-03T13:23:04.526Z,42.45
2018-08-03T13:25:33.482Z,40.44
2018-08-03T13:28:02.736Z,41.59
2018-08-03T13:30:32.547Z,42.68
2018-08-03T13:33:01.464Z,42.18
2018-08-03T13:35:30.354Z,43.04
2018-08-03T13:37:59.345Z,43.98
2018-08-03T13:40:28.428Z,43.31
2018-08-03T13:42:57.623Z,44.78
2018-08-03T13:45:27.036Z,42.73
2018-08-03T13:47:56.158Z,44.09
2018-08-03T13:50:25.674Z,44.15
2018-08-03T13:52:54.518Z,42.98
2018-08-03T13:55:24.388Z,41.59
2018-08-03T13:57:53.151Z,43.40
2018-08-03T14:00:22.122Z,42.79
2018-08-03T14:02:51.469Z,42.88
2018-08-03T14:05:20.625Z,43.42
2018-08-03T14:07:49.505Z,43.20
2018-08-03T14:10:18.655Z,44.02
2018-08-03T14:12:47.777Z,43.54
2018-08-03T14:15:16.794Z,42.65
2018-08-03T14:17:45.943Z,44.82
2018-08-03T14:20:15.002Z,45.31
2018-08-03T14:22:44.243Z,43.34
2018-08-03T14:25:13.101Z,42.60
2018-08-03T14:27:41.977Z,42.59
2018-08-03T14:30:10.809Z,42.27
2018-08-03T14:32:39.911Z,42.54
2018-08-03T14:35:09.044Z,42.41
2018-08-03T14:37:38.155Z,42.66
2018-08-03T14:40:07.113Z,42.84
2018-08-03T14:42:36.058Z,42.14
2018-08-03T14:45:05.865Z,42.65
2018-08-03T14:47:35.689Z,44.22
2018-08-03T14:50:05.299Z,46.17
2018-08-03T14:52:34.391Z,46.26
2018-08-03T14:55:04.130Z,45.71
2018-08-03T14:57:32.899Z,42.49
2018-08-03T15:00:02.809Z,43.52
2018-08-03T15:02:31.898Z,42.32
2018-08-03T15:05:00.999Z,42.97
2018-08-03T15:07:30.508Z,43.66
2018-08-03T15:09:59.666Z,44.96
2018-08-03T15:12:28.638Z,45.71
2018-08-03T15:14:57.813Z,46.11
2018-08-03T15:17:26.611Z,47.00
2018-08-03T15:19:55.679Z,43.78
2018-08-03T15:22:25.188Z,43.68
2018-08-03T15:24:54.313Z,44.26
2018-08-03T15:27:23.315Z,44.89
2018-08-03T15:29:52.364Z,46.78
2018-08-03T15:32:22.054Z,46.33
2018-08-03T15:34:51.298Z,47.30
2018-08-03T15:37:20.347Z,47.14
2018-08-03T15:39:49.208Z,47.63
2018-08-03T15:42:18.446Z,47.90
2018-08-03T15:44:47.564Z,47.99
2018-08-03T15:47:16.822Z,47.73
2018-08-03T15:49:45.692Z,48.00
2018-08-03T15:52:14.879Z,47.29
2018-08-03T15:54:44.072Z,47.71
2018-08-03T15:57:13.662Z,47.76
2018-08-03T15:59:43.176Z,47.84
2018-08-03T16:02:11.885Z,48.93
2018-08-03T16:04:41.266Z,49.17
2018-08-03T16:07:11.008Z,49.53
2018-08-03T16:09:39.907Z,49.02
2018-08-03T16:12:09.575Z,49.63
2018-08-03T16:14:38.659Z,49.72
2018-08-03T16:17:07.706Z,50.59
2018-08-03T16:19:36.878Z,49.09
2018-08-03T16:22:06.036Z,49.02
2018-08-03T16:24:35.316Z,50.10
2018-08-03T16:27:04.372Z,49.61
2018-08-03T16:29:33.243Z,49.82
2018-08-03T16:32:02.294Z,49.75
2018-08-03T16:34:31.455Z,49.31
2018-08-03T16:37:00.344Z,48.59
2018-08-03T16:39:29.505Z,48.34
2018-08-03T16:41:58.729Z,49.65
2018-08-03T16:44:27.771Z,50.06
2018-08-03T16:46:57.059Z,49.97
2018-08-03T16:49:26.674Z,49.85
2018-08-03T16:51:55.854Z,50.09
2018-08-03T16:54:24.979Z,50.90
2018-08-03T16:56:54.027Z,51.34
2018-08-03T16:59:24.147Z,51.39
2018-08-03T17:01:53.719Z,50.67
2018-08-03T17:04:22.773Z,51.64
2018-08-03T17:06:51.890Z,51.41
2018-08-03T17:09:20.767Z,52.19
2018-08-03T17:11:49.647Z,51.51
2018-08-03T17:14:18.490Z,52.00
2018-08-03T17:16:47.316Z,52.89
2018-08-03T17:19:16.202Z,52.68
2018-08-03T17:21:45.103Z,53.29
2018-08-03T17:24:14.345Z,53.45
2018-08-03T17:26:43.435Z,53.52
2018-08-03T17:29:12.582Z,53.46
2018-08-03T17:31:42.993Z,53.94
2018-08-03T17:34:12.593Z,53.75
2018-08-03T17:36:42.327Z,53.66
2018-08-03T17:39:12.910Z,52.92
2018-08-03T17:41:46.217Z,53.68
2018-08-03T17:44:15.218Z,52.93
2018-08-03T17:46:44.308Z,52.81
2018-08-03T17:49:13.199Z,53.46
2018-08-03T17:51:42.004Z,53.72
2018-08-03T17:54:11.315Z,54.11
2018-08-03T17:56:40.147Z,53.90
2018-08-03T17:59:09.408Z,54.50
2018-08-03T18:01:38.432Z,54.69
2018-08-03T18:04:09.400Z,54.59
2018-08-03T18:06:39.132Z,54.72
2018-08-03T18:09:10.882Z,54.73
2018-08-03T18:11:40.505Z,55.33
2018-08-03T18:14:09.395Z,55.60
2018-08-03T18:16:38.469Z,55.23
2018-08-03T18:19:07.347Z,55.77
2018-08-03T18:21:42.372Z,55.57
2018-08-03T18:24:11.714Z,55.68
2018-08-03T18:26:40.435Z,56.09
2018-08-03T18:29:09.289Z,56.58
2018-08-03T18:31:38.727Z,56.83
2018-08-03T18:34:07.488Z,57.11
2018-08-03T18:36:36.278Z,57.09
2018-08-03T18:39:06.754Z,57.18
2018-08-03T18:41:36.183Z,57.02
2018-08-03T18:44:05.051Z,57.60
2018-08-03T18:46:34.383Z,57.84
2018-08-03T18:49:04.259Z,57.89
2018-08-03T18:51:35.493Z,57.57
2018-08-03T18:54:04.365Z,58.29
2018-08-03T18:56:33.166Z,58.23
2018-08-03T18:59:03.111Z,58.05
2018-08-03T19:01:32.362Z,59.06
2018-08-03T19:04:01.389Z,59.19
2018-08-03T19:06:31.545Z,59.13
2018-08-03T19:09:01.202Z,59.07
2018-08-03T19:11:30.231Z,59.48
2018-08-03T19:13:59.432Z,59.71
2018-08-03T19:16:28.410Z,59.32
2018-08-03T19:18:57.728Z,59.93
2018-08-03T19:21:27.215Z,60.18
2018-08-03T19:23:56.398Z,60.01
2018-08-03T19:26:26.474Z,60.67
2018-08-03T19:28:56.587Z,60.47
2018-08-03T19:31:25.698Z,60.37
2018-08-03T19:33:55.893Z,60.92
2018-08-03T19:36:25.121Z,61.55
2018-08-03T19:38:54.184Z,61.22
2018-08-03T19:41:23.157Z,61.51
2018-08-03T19:43:53.034Z,61.46
2018-08-03T19:46:22.704Z,61.43
2018-08-03T19:48:51.690Z,62.10
2018-08-03T19:51:21.065Z,62.12
2018-08-03T19:53:50.188Z,62.89
2018-08-03T19:56:19.258Z,62.22
2018-08-03T19:58:48.575Z,61.72
2018-08-03T20:01:17.380Z,61.98
2018-08-03T20:03:46.519Z,61.94
2018-08-03T20:06:15.994Z,62.00
2018-08-03T20:08:44.981Z,62.70
2018-08-03T20:11:14.439Z,62.74
2018-08-03T20:13:44.009Z,62.99
2018-08-03T20:16:13.102Z,62.80
2018-08-03T20:18:42.190Z,63.39
2018-08-03T20:21:11.723Z,63.18
2018-08-03T20:23:40.641Z,63.88
2018-08-03T20:26:09.768Z,64.21
2018-08-03T20:28:39.228Z,64.53
2018-08-03T20:31:08.138Z,64.88
2018-08-03T20:33:37.070Z,64.59
2018-08-03T20:36:06.484Z,64.73
2018-08-03T20:38:35.882Z,64.86
2018-08-03T20:41:04.758Z,64.23
2018-08-03T20:43:34.715Z,64.98
2018-08-03T20:46:03.811Z,65.13
2018-08-03T20:48:33.383Z,64.26
2018-08-03T20:51:02.720Z,64.45
2018-08-03T20:53:31.778Z,64.47
2018-08-03T20:56:00.598Z,64.47
2018-08-03T20:58:29.734Z,65.04
2018-08-03T21:00:59.323Z,64.90
2018-08-03T21:03:28.292Z,64.17
2018-08-03T21:05:57.719Z,63.80
2018-08-03T21:08:26.551Z,64.12
2018-08-03T21:10:55.481Z,63.84
2018-08-03T21:13:24.791Z,63.35
2018-08-03T21:15:53.765Z,63.87
2018-08-03T21:18:23.886Z,63.56
2018-08-03T21:20:52.719Z,63.97
2018-08-03T21:23:21.775Z,63.86
2018-08-03T21:25:50.873Z,63.95
2018-08-03T21:28:19.953Z,63.97
2018-08-03T21:30:49.154Z,64.57
2018-08-03T21:33:18.667Z,65.37
2018-08-03T21:35:47.695Z,65.28
2018-08-03T21:38:16.538Z,66.06
2018-08-03T21:40:46.077Z,66.16
2018-08-03T21:43:15.237Z,65.99
2018-08-03T21:45:44.134Z,66.02
2018-08-03T21:48:12.889Z,65.84
2018-08-03T21:50:42.143Z,66.08
2018-08-03T21:53:11.777Z,66.59
2018-08-03T21:55:40.626Z,66.76
2018-08-03T21:58:09.801Z,66.69
2018-08-03T22:00:39.254Z,67.74
2018-08-03T22:03:08.318Z,67.53
2018-08-03T22:05:37.554Z,67.22
2018-08-03T22:08:06.334Z,67.58
2018-08-03T22:10:35.103Z,67.18
2018-08-03T22:13:04.641Z,67.41
2018-08-03T22:15:34.822Z,67.46
2018-08-03T22:18:03.663Z,67.54
2018-08-03T22:20:32.562Z,68.14
2018-08-03T22:23:01.422Z,69.14
2018-08-03T22:25:30.330Z,70.39
2018-08-03T22:27:59.344Z,70.67
2018-08-03T22:30:28.614Z,70.91
2018-08-03T22:32:57.679Z,71.51
2018-08-03T22:35:26.654Z,71.73
2018-08-03T22:37:55.706Z,71.40
2018-08-03T22:40:24.678Z,71.88
2018-08-03T22:42:53.961Z,72.08
2018-08-03T22:45:22.770Z,72.44
2018-08-03T22:47:51.993Z,72.53
2018-08-03T22:50:21.282Z,72.81
2018-08-03T22:52:50.188Z,72.46
2018-08-03T22:55:19.329Z,72.39
2018-08-03T22:57:48.450Z,72.71
2018-08-03T23:00:18.019Z,72.51
2018-08-03T23:02:47.071Z,72.50
2018-08-03T23:05:16.594Z,73.23
2018-08-03T23:07:45.436Z,73.45
2018-08-03T23:10:14.372Z,73.59
2018-08-03T23:12:44.094Z,73.48
2018-08-03T23:15:13.154Z,73.34
2018-08-03T23:17:41.966Z,74.49
2018-08-03T23:20:11.176Z,74.30
2018-08-03T23:22:40.077Z,74.68
2018-08-03T23:25:09.007Z,73.99
2018-08-03T23:27:38.960Z,73.48
2018-08-03T23:30:09.319Z,73.55
2018-08-03T23:32:38.626Z,73.39
2018-08-03T23:35:08.454Z,73.72
2018-08-03T23:37:37.907Z,73.90
2018-08-03T23:40:07.138Z,73.89
2018-08-03T23:42:37.094Z,74.28
2018-08-03T23:45:06.801Z,73.49
2018-08-03T23:47:35.936Z,73.65
2018-08-03T23:50:06.279Z,73.81
2018-08-03T23:52:35.343Z,73.70
2018-08-03T23:55:04.312Z,74.16
2018-08-03T23:57:33.487Z,74.61
